Time;durP1;ratioP1;P1;durP2;ratioP2;P2;SDS_P1;SDS_P2;PMS_P1;PMS_P2;Temp;Humidity;BMP_temperature;BMP_pressure;BME280_temperature;BME280_humidity;BME280_pressure;Samples;Min_cycle;Max_cycle;Signal;HPM_P1;HPM_P2
2022/08/23 00:01:05;;;;;;;15.47;9.57;;;23.40;1.00;;;;;;5061758;28;20207;-88
2022/08/23 00:07:02;;;;;;;17.30;9.30;;;23.00;1.00;;;;;;5062795;28;20168;-88
2022/08/23 00:13:10;;;;;;;15.27;8.33;;;23.10;1.00;;;;;;5060475;28;20180;-88
2022/08/23 00:16:05;;;;;;;17.67;8.73;;;23.00;1.00;;;;;;5062364;28;20607;-88
2022/08/23 00:18:43;;;;;;;18.33;7.87;;;23.00;1.00;;;;;;5044229;28;20275;-87
2022/08/23 00:21:20;;;;;;;13.77;7.53;;;22.90;1.00;;;;;;5044072;28;20176;-88
2022/08/23 00:24:00;;;;;;;18.27;6.90;;;22.80;1.00;;;;;;5040983;28;20184;-88
2022/08/23 00:29:51;;;;;;;15.40;7.80;;;22.80;1.00;;;;;;5076454;28;20176;-88
2022/08/23 00:32:33;;;;;;;11.73;7.73;;;22.70;1.00;;;;;;5018744;28;20191;-89
2022/08/23 00:35:09;;;;;;;16.43;8.13;;;22.80;1.00;;;;;;5017891;28;20242;-89
2022/08/23 00:38:09;;;;;;;18.80;8.53;;;22.80;1.00;;;;;;5001191;28;20267;-90
2022/08/23 00:40:50;;;;;;;14.23;7.87;;;22.90;1.00;;;;;;5017186;28;20198;-89
2022/08/23 00:50:05;;;;;;;19.60;8.10;;;22.80;1.00;;;;;;5020090;28;20321;-89
2022/08/23 00:56:04;;;;;;;12.00;7.50;;;22.50;1.00;;;;;;5019342;28;20201;-90
2022/08/23 00:58:37;;;;;;;10.50;6.73;;;22.40;1.00;;;;;;5019030;28;20244;-89
2022/08/23 01:08:26;;;;;;;15.13;7.90;;;22.20;1.00;;;;;;5077921;28;20160;-88
2022/08/23 01:11:33;;;;;;;15.33;8.20;;;22.30;1.00;;;;;;5061374;28;20180;-90
2022/08/23 01:14:57;;;;;;;13.80;7.10;;;22.30;1.00;;;;;;5077891;28;20165;-89
2022/08/23 01:17:39;;;;;;;13.77;7.30;;;22.40;1.00;;;;;;5013798;28;20176;-90
2022/08/23 01:20:48;;;;;;;9.70;7.03;;;22.40;1.00;;;;;;5078170;28;20184;-88
2022/08/23 01:23:45;;;;;;;11.93;7.60;;;22.50;1.00;;;;;;5069607;28;20165;-89
2022/08/23 01:26:17;;;;;;;13.27;7.70;;;22.50;1.00;;;;;;5062138;28;20240;-88
2022/08/23 01:32:24;;;;;;;14.30;8.63;;;22.30;1.00;;;;;;5078882;28;20165;-90
2022/08/23 01:38:54;;;;;;;13.90;8.37;;;22.20;1.00;;;;;;5079633;28;20240;-88
2022/08/23 01:44:51;;;;;;;16.30;8.37;;;22.20;1.00;;;;;;5057556;28;20199;-88
2022/08/23 01:49:56;;;;;;;16.60;8.10;;;22.20;1.00;;;;;;5071701;28;20292;-88
2022/08/23 01:53:10;;;;;;;16.77;7.90;;;22.20;1.00;;;;;;5078482;28;20675;-88
2022/08/23 01:56:18;;;;;;;14.53;7.93;;;22.10;1.00;;;;;;5064841;28;20226;-87
2022/08/23 01:59:12;;;;;;;17.10;7.43;;;21.90;1.00;;;;;;5077788;28;20207;-88
2022/08/23 02:01:48;;;;;;;13.80;7.60;;;21.80;1.00;;;;;;5065116;28;20187;-88
2022/08/23 02:07:46;;;;;;;17.20;7.70;;;21.70;1.00;;;;;;5075889;28;20165;-89
2022/08/23 02:10:38;;;;;;;16.50;7.33;;;21.70;1.00;;;;;;5059119;28;20207;-89
2022/08/23 02:13:44;;;;;;;16.00;7.87;;;21.60;1.00;;;;;;5079209;28;20175;-88
2022/08/23 02:16:47;;;;;;;13.67;8.13;;;21.70;1.00;;;;;;5068391;28;20221;-88
2022/08/23 02:20:07;;;;;;;16.27;9.03;;;21.60;1.00;;;;;;5043815;28;20230;-89
2022/08/23 02:23:01;;;;;;;;;;;;;;;;;;;;;
2022/08/23 02:25:36;;;;;;;15.50;7.63;;;21.50;1.00;;;;;;5075973;28;20203;-89
2022/08/23 02:28:27;;;;;;;10.10;7.67;;;21.30;1.00;;;;;;5076145;28;20190;-90
2022/08/23 02:34:34;;;;;;;15.10;7.73;;;21.00;1.00;;;;;;5074675;28;20195;-91
2022/08/23 02:37:13;;;;;;;15.53;8.23;;;20.90;1.00;;;;;;5076072;28;20240;-89
2022/08/23 02:39:48;;;;;;;12.63;7.67;;;20.90;1.00;;;;;;5078018;28;20287;-88
2022/08/23 02:45:59;;;;;;;10.77;7.87;;;21.20;1.00;;;;;;5077436;28;20182;-89
2022/08/23 02:52:09;;;;;;;15.13;7.87;;;21.20;1.00;;;;;;5076904;28;20233;-88
2022/08/23 02:54:37;;;;;;;12.50;7.83;;;21.10;1.00;;;;;;5059875;28;20206;-89
2022/08/23 03:01:14;;;;;;;13.80;7.10;;;21.00;1.00;;;;;;5081472;28;20243;-89
2022/08/23 03:04:29;;;;;;;13.93;7.23;;;20.80;1.00;;;;;;5078499;28;20225;-89
2022/08/23 03:10:37;;;;;;;11.03;7.50;;;20.80;1.00;;;;;;5079836;28;20190;-89
2022/08/23 03:13:57;;;;;;;14.57;7.47;;;20.80;1.00;;;;;;5068553;28;20173;-89
2022/08/23 03:19:47;;;;;;;14.10;7.30;;;20.60;1.00;;;;;;5075174;28;20236;-89
2022/08/23 03:22:16;;;;;;;14.90;7.10;;;20.60;1.00;;;;;;5062177;28;20167;-88
2022/08/23 03:24:41;;;;;;;12.20;7.40;;;20.70;1.00;;;;;;5078194;28;20204;-89
2022/08/23 03:27:30;;;;;;;14.23;6.90;;;20.70;1.00;;;;;;5076936;28;20235;-86
2022/08/23 03:30:00;;;;;;;13.57;7.47;;;20.60;1.00;;;;;;5078966;28;20197;-88
2022/08/23 03:32:59;;;;;;;11.70;7.00;;;20.70;1.00;;;;;;5061062;28;20200;-89
2022/08/23 03:35:28;;;;;;;10.20;7.50;;;20.70;1.00;;;;;;5077674;28;20215;-89
2022/08/23 03:38:16;;;;;;;18.23;7.70;;;20.50;1.00;;;;;;5069841;28;20164;-89
2022/08/23 03:40:46;;;;;;;12.40;7.43;;;20.60;1.00;;;;;;5064712;28;20227;-88
2022/08/23 03:43:15;;;;;;;13.67;7.57;;;20.60;1.00;;;;;;5065556;28;20260;-89
2022/08/23 03:46:29;;;;;;;11.73;7.50;;;20.70;1.00;;;;;;5067808;28;20280;-89
2022/08/23 03:49:43;;;;;;;15.20;7.97;;;20.70;1.00;;;;;;5048903;28;20185;-89
2022/08/23 03:53:00;;;;;;;15.37;7.60;;;20.70;1.00;;;;;;5046821;28;20207;-90
2022/08/23 03:55:26;;;;;;;13.97;7.70;;;20.80;1.00;;;;;;5046825;28;20225;-89
2022/08/23 03:58:22;;;;;;;15.70;8.57;;;20.90;1.00;;;;;;5045768;28;20211;-89
2022/08/23 04:01:04;;;;;;;14.80;9.47;;;20.80;1.00;;;;;;5047574;28;20177;-89
2022/08/23 04:03:31;;;;;;;14.33;8.83;;;20.60;1.00;;;;;;5040636;28;20193;-89
2022/08/23 04:06:53;;;;;;;14.60;9.07;;;20.50;1.00;;;;;;5056998;28;20181;-88
2022/08/23 04:09:31;;;;;;;15.60;8.67;;;20.50;1.00;;;;;;5039701;28;20180;-89
2022/08/23 04:11:57;;;;;;;14.87;8.40;;;20.30;1.30;;;;;;5032826;28;20239;-90
2022/08/23 04:14:48;;;;;;;13.47;8.73;;;20.10;9.10;;;;;;5079219;28;20223;-88
2022/08/23 04:17:20;;;;;;;16.93;8.90;;;20.40;5.90;;;;;;5079431;28;20176;-88
2022/08/23 04:19:49;;;;;;;12.17;8.43;;;20.30;5.80;;;;;;5062474;28;20181;-90
2022/08/23 04:25:37;;;;;;;11.90;8.27;;;20.30;8.40;;;;;;5080767;28;20169;-89
2022/08/23 04:28:20;;;;;;;14.93;7.73;;;20.30;9.10;;;;;;5080613;28;20170;-87
2022/08/23 04:34:08;;;;;;;13.97;7.67;;;20.40;2.30;;;;;;5080458;28;20161;-87
2022/08/23 04:42:52;;;;;;;12.87;8.10;;;20.30;7.90;;;;;;5079490;28;20169;-88
2022/08/23 04:48:35;;;;;;;16.13;8.30;;;20.40;6.60;;;;;;5080129;28;20142;-89
2022/08/23 04:51:30;;;;;;;13.33;8.20;;;20.50;1.00;;;;;;5071755;28;20197;-89
2022/08/23 04:54:41;;;;;;;16.90;8.40;;;20.60;1.00;;;;;;5044987;28;20247;-88
2022/08/23 04:57:45;;;;;;;17.57;8.70;;;20.60;1.00;;;;;;5040413;28;20322;-89
2022/08/23 05:00:46;;;;;;;12.50;8.07;;;20.70;1.00;;;;;;5056433;28;20184;-89
2022/08/23 05:03:37;;;;;;;15.63;8.90;;;20.80;1.00;;;;;;5059169;28;20197;-89
2022/08/23 05:06:07;;;;;;;13.07;7.97;;;20.80;1.00;;;;;;5060182;28;20181;-89
2022/08/23 05:08:33;;;;;;;15.03;8.50;;;20.80;1.00;;;;;;5056703;28;20176;-88
2022/08/23 05:11:10;;;;;;;12.57;9.03;;;20.50;1.00;;;;;;5057977;28;20219;-88
2022/08/23 05:13:49;;;;;;;18.17;8.83;;;20.50;1.00;;;;;;5041684;28;20172;-89
2022/08/23 05:16:21;;;;;;;16.83;8.70;;;20.60;1.00;;;;;;5030940;28;20224;-89
2022/08/23 05:19:23;;;;;;;15.50;8.80;;;20.60;1.00;;;;;;5054842;28;20184;-89
2022/08/23 05:21:50;;;;;;;18.13;9.47;;;20.80;1.00;;;;;;5059462;28;20161;-89
2022/08/23 05:24:36;;;;;;;17.43;10.03;;;21.00;1.00;;;;;;5059795;28;20243;-89
2022/08/23 05:27:25;;;;;;;18.17;9.33;;;21.00;1.00;;;;;;5058721;28;20169;-88
2022/08/23 05:29:56;;;;;;;18.27;9.70;;;21.30;1.00;;;;;;5060079;28;20258;-88
2022/08/23 05:32:27;;;;;;;19.27;10.00;;;21.30;1.00;;;;;;5062709;28;20199;-88
2022/08/23 05:35:00;;;;;;;19.73;9.83;;;21.20;1.00;;;;;;5044475;28;20681;-87
2022/08/23 05:37:29;;;;;;;18.03;9.80;;;21.50;1.00;;;;;;5060659;28;20180;-88
2022/08/23 05:40:15;;;;;;;18.37;10.10;;;21.60;1.00;;;;;;5061289;28;20207;-87
2022/08/23 05:43:11;;;;;;;18.57;10.50;;;21.50;1.00;;;;;;5075848;28;20177;-89
2022/08/23 05:45:43;;;;;;;15.87;9.60;;;21.50;1.00;;;;;;5075165;28;20178;-89
2022/08/23 05:48:48;;;;;;;19.23;9.87;;;21.50;1.00;;;;;;5073228;28;20208;-89
2022/08/23 05:51:22;;;;;;;19.53;10.00;;;21.70;1.00;;;;;;5076491;28;20247;-89
2022/08/23 05:54:01;;;;;;;14.53;8.67;;;21.70;1.00;;;;;;5056377;28;20172;-88
2022/08/23 05:56:32;;;;;;;19.37;9.90;;;21.80;1.00;;;;;;5052790;28;20220;-90
2022/08/23 05:59:26;;;;;;;18.80;9.97;;;21.80;1.00;;;;;;5039582;28;20181;-89
2022/08/23 06:01:52;;;;;;;18.07;9.03;;;21.90;1.00;;;;;;5039425;28;20356;-83
2022/08/23 06:04:33;;;;;;;17.43;9.27;;;22.10;1.00;;;;;;5054500;28;20298;-83
2022/08/23 06:06:59;;;;;;;15.33;9.30;;;22.30;1.00;;;;;;5053459;28;20173;-82
2022/08/23 06:09:26;;;;;;;18.43;9.63;;;22.40;1.00;;;;;;5053461;28;20184;-82
2022/08/23 06:11:52;;;;;;;15.80;8.97;;;22.50;1.00;;;;;;5053544;28;20177;-82
2022/08/23 06:14:18;;;;;;;13.67;8.67;;;22.60;1.00;;;;;;5053308;28;20242;-82
2022/08/23 06:16:49;;;;;;;15.67;9.20;;;22.70;1.00;;;;;;5053645;28;20184;-82
2022/08/23 06:19:16;;;;;;;16.77;8.67;;;22.80;1.00;;;;;;5073046;28;20175;-83
2022/08/23 06:21:42;;;;;;;18.40;9.03;;;23.00;1.00;;;;;;5073018;28;20269;-83
2022/08/23 06:24:09;;;;;;;17.10;9.40;;;23.00;1.00;;;;;;5055451;28;20302;-82
2022/08/23 06:26:39;;;;;;;19.57;8.20;;;23.10;1.00;;;;;;5073274;28;20172;-83
2022/08/23 06:29:09;;;;;;;13.77;7.80;;;23.10;1.00;;;;;;5072576;28;20180;-81
2022/08/23 06:31:48;;;;;;;21.60;9.60;;;23.30;1.00;;;;;;5075263;28;20202;-87
2022/08/23 06:34:19;;;;;;;17.47;8.27;;;23.40;1.00;;;;;;5078477;28;20214;-94
2022/08/23 06:36:55;;;;;;;17.93;8.10;;;23.20;1.00;;;;;;5078817;28;20176;-90
2022/08/23 06:40:05;;;;;;;15.10;7.03;;;22.90;1.00;;;;;;5058182;28;20203;-86
2022/08/23 06:43:13;;;;;;;14.37;7.67;;;22.60;1.00;;;;;;5057691;28;20180;-87
2022/08/23 06:45:39;;;;;;;17.97;7.13;;;22.60;1.00;;;;;;5058679;28;20189;-87
2022/08/23 06:52:17;;;;;;;12.00;5.97;;;22.70;1.00;;;;;;4949282;29;20184;-86
2022/08/23 06:54:45;;;;;;;10.23;5.37;;;22.60;1.00;;;;;;5003734;28;20219;-94
2022/08/23 06:57:17;;;;;;;11.57;5.93;;;22.70;1.00;;;;;;5087390;28;20191;-92
2022/08/23 07:00:53;;;;;;;12.53;5.63;;;22.90;1.00;;;;;;5065460;28;20215;-92
2022/08/23 07:03:10;;;;;;;13.40;6.50;;;22.70;1.00;;;;;;5077690;28;20203;-87
2022/08/23 07:05:41;;;;;;;16.27;6.23;;;22.50;1.00;;;;;;5093946;28;20200;-88
2022/08/23 07:08:12;;;;;;;14.00;5.40;;;22.50;1.00;;;;;;5095842;28;20164;-91
2022/08/23 07:10:38;;;;;;;14.20;5.70;;;22.70;1.00;;;;;;5096804;28;20220;-84
2022/08/23 07:13:04;;;;;;;15.20;6.07;;;22.70;1.00;;;;;;5079547;28;20184;-83
2022/08/23 07:15:30;;;;;;;12.23;5.47;;;22.70;1.00;;;;;;5075726;28;20242;-82
2022/08/23 07:17:57;;;;;;;12.57;5.33;;;22.70;1.00;;;;;;5080252;28;20180;-88
2022/08/23 07:20:22;;;;;;;12.50;5.20;;;22.80;1.00;;;;;;5095812;28;20172;-84
2022/08/23 07:22:53;;;;;;;10.17;5.30;;;23.10;1.00;;;;;;5087006;28;20165;-83
2022/08/23 07:25:27;;;;;;;20.07;5.60;;;23.10;1.00;;;;;;5063429;28;20600;-92
2022/08/23 07:28:13;;;;;;;12.73;5.37;;;23.00;1.00;;;;;;5078994;28;20178;-84
2022/08/23 07:31:04;;;;;;;14.30;5.00;;;23.20;1.00;;;;;;5060135;28;20190;-86
2022/08/23 07:33:31;;;;;;;13.17;4.83;;;23.50;1.00;;;;;;5062826;28;20188;-93
2022/08/23 07:35:59;;;;;;;15.83;4.43;;;23.60;1.00;;;;;;5094080;28;20203;-89
2022/08/23 07:38:26;;;;;;;11.17;4.40;;;23.60;1.00;;;;;;5077897;28;20275;-86
2022/08/23 07:40:52;;;;;;;12.03;4.70;;;23.70;1.00;;;;;;5089650;28;20199;-86
2022/08/23 07:43:21;;;;;;;14.97;5.47;;;23.80;1.00;;;;;;5072784;28;20209;-90
2022/08/23 07:45:48;;;;;;;10.50;4.67;;;24.00;1.00;;;;;;5073080;28;20219;-89
2022/08/23 07:48:15;;;;;;;13.60;4.67;;;24.10;1.00;;;;;;5064336;28;20261;-88
2022/08/23 07:50:49;;;;;;;12.50;4.43;;;24.10;1.00;;;;;;5056228;28;20184;-90
2022/08/23 07:53:15;;;;;;;18.20;3.97;;;24.10;1.00;;;;;;5092276;28;20156;-87
2022/08/23 07:55:46;;;;;;;15.00;4.60;;;24.10;1.00;;;;;;5087289;28;20245;-88
2022/08/23 07:58:12;;;;;;;9.07;4.00;;;24.30;1.00;;;;;;5079631;28;20190;-88
2022/08/23 08:00:39;;;;;;;12.73;3.90;;;24.50;1.00;;;;;;5078747;28;20207;-93
2022/08/23 08:03:08;;;;;;;12.47;4.20;;;24.50;1.00;;;;;;5091482;28;20207;-86
2022/08/23 08:05:35;;;;;;;15.47;4.10;;;24.50;1.00;;;;;;5088811;28;20226;-87
2022/08/23 08:08:03;;;;;;;10.83;4.20;;;24.40;1.00;;;;;;5075561;28;20632;-87
2022/08/23 08:10:37;;;;;;;12.63;4.07;;;24.40;1.00;;;;;;5063632;28;20180;-86
2022/08/23 08:13:14;;;;;;;9.53;4.07;;;24.60;1.00;;;;;;5081693;28;20617;-87
2022/08/23 08:15:43;;;;;;;8.63;3.90;;;24.70;1.00;;;;;;5063236;28;20679;-86
2022/08/23 08:18:12;;;;;;;14.33;4.20;;;24.70;1.00;;;;;;5062658;28;20183;-87
2022/08/23 08:20:51;;;;;;;12.73;4.00;;;24.70;1.00;;;;;;5062941;28;20180;-88
2022/08/23 08:23:29;;;;;;;8.90;3.60;;;24.70;1.00;;;;;;5081475;28;20242;-85
2022/08/23 08:26:04;;;;;;;7.27;3.10;;;24.90;99.90;;;;;;5081556;28;20182;-88
2022/08/23 08:28:30;;;;;;;9.13;3.57;;;25.00;99.90;;;;;;5062226;28;20282;-87
2022/08/23 08:30:57;;;;;;;7.80;3.37;;;25.00;99.90;;;;;;5061892;28;20196;-85
2022/08/23 08:33:34;;;;;;;4.07;2.27;;;25.10;99.90;;;;;;5045771;28;20648;-87
2022/08/23 08:36:00;;;;;;;9.33;3.13;;;25.20;99.90;;;;;;5079597;28;20671;-87
2022/08/23 08:38:26;;;;;;;7.83;2.57;;;25.20;99.90;;;;;;5042585;28;20240;-85
2022/08/23 08:41:15;;;;;;;5.33;2.63;;;25.20;99.90;;;;;;5061459;28;20258;-87
2022/08/23 08:44:08;;;;;;;11.33;3.20;;;25.20;99.90;;;;;;5077648;28;20177;-88
2022/08/23 08:46:46;;;;;;;10.80;3.23;;;25.20;99.90;;;;;;5059609;28;20195;-87
2022/08/23 08:49:48;;;;;;;6.80;2.80;;;25.20;99.90;;;;;;5061169;28;20202;-86
2022/08/23 08:52:24;;;;;;;12.97;3.43;;;25.10;99.90;;;;;;5078965;28;20180;-85
2022/08/23 08:55:01;;;;;;;7.60;3.03;;;25.10;99.90;;;;;;5076957;28;20211;-88
2022/08/23 08:57:30;;;;;;;11.87;3.53;;;25.10;99.90;;;;;;5061837;28;20609;-87
2022/08/23 09:00:05;;;;;;;7.17;3.43;;;25.10;99.90;;;;;;5043938;28;20200;-88
2022/08/23 09:02:33;;;;;;;9.30;3.40;;;25.10;99.90;;;;;;5059069;28;20180;-85
2022/08/23 09:05:10;;;;;;;9.03;3.60;;;25.20;99.90;;;;;;5044677;28;20213;-86
2022/08/23 09:08:00;;;;;;;8.63;4.03;;;25.10;99.90;;;;;;5077570;28;20176;-85
2022/08/23 09:10:45;;;;;;;6.70;3.80;;;24.90;1.00;;;;;;5060950;28;20202;-86
2022/08/23 09:13:28;;;;;;;8.63;3.60;;;24.90;1.00;;;;;;5061934;28;20214;-86
2022/08/23 09:16:07;;;;;;;7.07;3.60;;;25.00;1.00;;;;;;5078103;28;20207;-89
2022/08/23 09:18:35;;;;;;;6.73;3.53;;;25.00;1.00;;;;;;5061165;28;20546;-86
2022/08/23 09:21:07;;;;;;;6.30;3.70;;;25.10;1.00;;;;;;5069057;28;20206;-85
2022/08/23 09:24:19;;;;;;;9.17;4.50;;;25.20;1.00;;;;;;5128707;27;20533;-87
2022/08/23 09:26:47;;;;;;;6.80;4.57;;;25.30;1.00;;;;;;5130920;28;20699;-85
2022/08/23 09:29:32;;;;;;;12.77;5.20;;;25.30;1.00;;;;;;5132477;28;20194;-86
2022/08/23 09:32:23;;;;;;;12.67;5.30;;;25.30;1.00;;;;;;5116092;28;20587;-87
2022/08/23 09:34:49;;;;;;;10.83;5.37;;;25.30;1.00;;;;;;5112094;28;20163;-87
2022/08/23 09:37:23;;;;;;;10.03;6.43;;;25.30;1.00;;;;;;5113093;28;20166;-87
2022/08/23 09:40:18;;;;;;;12.87;5.70;;;25.30;1.00;;;;;;5111027;28;20671;-87
2022/08/23 09:43:03;;;;;;;10.83;5.30;;;25.40;1.00;;;;;;5114772;28;20190;-86
2022/08/23 09:45:34;;;;;;;14.47;5.10;;;25.40;1.00;;;;;;5093774;28;20662;-86
2022/08/23 09:48:07;;;;;;;9.10;4.97;;;25.60;99.90;;;;;;5111333;28;20259;-86
2022/08/23 09:50:48;;;;;;;6.87;3.00;;;25.80;99.90;;;;;;5112627;28;20163;-87
2022/08/23 09:53:21;;;;;;;5.67;2.23;;;25.80;99.90;;;;;;5128371;28;20169;-86
2022/08/23 09:55:53;;;;;;;8.30;3.03;;;25.80;99.90;;;;;;5130095;28;20178;-87
2022/08/23 09:58:42;;;;;;;4.13;2.23;;;25.70;99.90;;;;;;5129694;28;20178;-86
2022/08/23 10:01:24;;;;;;;6.03;2.90;;;25.70;99.90;;;;;;5129701;28;20171;-88
2022/08/23 10:04:14;;;;;;;5.93;2.00;;;25.90;99.90;;;;;;5133155;28;20171;-87
2022/08/23 10:06:46;;;;;;;4.43;2.03;;;26.00;99.90;;;;;;5134537;28;20273;-86
2022/08/23 10:09:29;;;;;;;5.33;2.10;;;26.10;99.90;;;;;;5134079;28;20220;-86
2022/08/23 10:12:11;;;;;;;3.57;1.80;;;26.20;99.90;;;;;;5133776;28;20166;-87
2022/08/23 10:14:39;;;;;;;5.80;2.40;;;26.30;99.90;;;;;;5129584;28;20163;-86
2022/08/23 10:17:22;;;;;;;5.77;2.10;;;26.50;99.90;;;;;;5129610;28;20159;-86
2022/08/23 10:20:29;;;;;;;4.57;1.77;;;26.60;99.90;;;;;;5128225;28;20163;-87
2022/08/23 10:23:32;;;;;;;4.50;1.70;;;26.80;99.90;;;;;;5028141;28;20263;-86
2022/08/23 10:25:58;;;;;;;6.37;2.00;;;26.90;99.90;;;;;;5113128;28;20170;-86
2022/08/23 10:32:08;;;;;;;6.00;1.80;;;27.10;99.90;;;;;;5131208;28;20202;-87
2022/08/23 10:35:23;;;;;;;5.03;1.70;;;26.80;99.90;;;;;;5118299;28;20175;-87
2022/08/23 10:37:54;;;;;;;4.63;1.60;;;26.60;99.90;;;;;;5117411;28;20179;-86
2022/08/23 10:40:28;;;;;;;7.33;1.90;;;26.60;99.90;;;;;;5116517;28;20174;-86
2022/08/23 10:43:29;;;;;;;3.90;1.08;;;26.70;99.90;;;;;;5117218;28;20247;-87
2022/08/23 10:46:11;;;;;;;8.20;1.43;;;26.50;99.90;;;;;;5119284;28;20167;-86
2022/08/23 10:49:12;;;;;;;7.33;1.50;;;26.40;99.90;;;;;;5116736;28;20182;-88
2022/08/23 10:59:01;;;;;;;4.00;1.23;;;26.20;99.90;;;;;;5120446;28;20177;-86
2022/08/23 11:01:59;;;;;;;7.60;1.60;;;26.30;99.90;;;;;;5119025;28;20205;-87
2022/08/23 11:04:57;;;;;;;2.13;1.00;;;26.50;99.90;;;;;;5120565;28;20170;-85
2022/08/23 11:07:41;;;;;;;4.03;1.00;;;26.80;99.90;;;;;;5120720;28;20166;-86
2022/08/23 11:17:08;;;;;;;1.50;1.00;;;27.10;99.90;;;;;;5113858;28;20163;-86
2022/08/23 11:24:03;;;;;;;2.40;1.05;;;27.10;1.00;;;;;;5037170;28;20256;-86
2022/08/23 11:34:10;;;;;;;2.10;1.05;;;27.80;1.00;;;;;;5042248;28;20181;-87
2022/08/23 11:37:14;;;;;;;1.47;0.77;;;27.80;1.00;;;;;;5110308;28;20209;-87
2022/08/23 11:46:33;;;;;;;24.10;3.47;;;27.40;1.00;;;;;;5116451;28;20170;-87
2022/08/23 11:49:36;;;;;;;0.87;0.70;;;27.50;1.00;;;;;;5109141;22;20326;-86
2022/08/23 11:52:48;;;;;;;4.18;0.95;;;27.30;99.90;;;;;;5098120;28;20204;-86
2022/08/23 12:02:38;;;;;;;2.40;1.42;;;27.80;99.90;;;;;;5093095;28;20214;-86
2022/08/23 12:05:58;;;;;;;1.75;1.02;;;27.90;99.90;;;;;;5079429;28;20184;-86
2022/08/23 12:12:41;;;;;;;2.08;0.90;;;28.20;1.00;;;;;;5096575;28;20158;-86
2022/08/23 12:18:57;;;;;;;2.67;0.82;;;28.00;1.00;;;;;;5016910;28;20169;-87
2022/08/23 12:22:17;;;;;;;1.42;0.85;;;28.00;1.00;;;;;;5015669;28;20177;-86
2022/08/23 12:25:36;;;;;;;;;;;;;;;;;;;;;
2022/08/23 12:31:38;;;;;;;2.30;0.90;;;27.90;1.00;;;;;;5009805;28;20737;-88
2022/08/23 12:34:34;;;;;;;2.33;1.17;;;27.50;1.00;;;;;;4997577;28;20154;-88
2022/08/23 12:40:31;;;;;;;1.98;0.90;;;27.80;99.90;;;;;;5014523;28;20189;-86
2022/08/23 12:43:41;;;;;;;2.03;0.60;;;27.80;99.90;;;;;;5013141;28;20205;-86
2022/08/23 12:49:37;;;;;;;2.75;0.95;;;28.00;99.90;;;;;;5004687;28;20240;-88
2022/08/23 12:52:11;;;;;;;1.80;0.80;;;28.20;99.90;;;;;;5091029;28;20247;-87
2022/08/23 12:54:56;;;;;;;2.85;1.02;;;28.10;1.00;;;;;;5097679;28;20224;-87
2022/08/23 12:57:37;;;;;;;1.70;0.90;;;28.00;1.00;;;;;;5095715;28;20161;-86
2022/08/23 13:01:14;;;;;;;1.60;0.90;;;28.00;1.00;;;;;;5092780;28;20176;-87
2022/08/23 13:04:28;;;;;;;4.22;0.93;;;27.70;99.90;;;;;;5076909;28;20208;-85
2022/08/23 13:07:03;;;;;;;0.93;0.60;;;28.00;1.00;;;;;;5074373;28;20192;-86
2022/08/23 13:10:13;;;;;;;2.83;0.70;;;28.10;99.90;;;;;;5074539;28;20164;-87
2022/08/23 13:12:57;;;;;;;2.80;1.15;;;28.10;1.00;;;;;;5095654;28;20160;-86
2022/08/23 13:18:51;;;;;;;1.67;0.90;;;28.40;1.00;;;;;;5092585;28;20171;-88
2022/08/23 13:21:38;;;;;;;2.63;1.00;;;28.80;1.00;;;;;;5091421;28;20180;-88
2022/08/23 13:24:34;;;;;;;1.15;0.90;;;29.00;1.00;;;;;;5075737;28;20228;-88
2022/08/23 13:27:39;;;;;;;3.38;1.20;;;29.10;1.00;;;;;;5089233;28;20187;-88
2022/08/23 13:30:24;;;;;;;1.98;0.90;;;29.20;99.90;;;;;;5074688;28;20168;-87
2022/08/23 13:33:20;;;;;;;2.42;1.00;;;29.00;1.00;;;;;;5074195;28;20183;-87
2022/08/23 13:36:37;;;;;;;2.10;1.00;;;28.70;1.00;;;;;;5065284;28;20191;-88
2022/08/23 13:39:08;;;;;;;3.25;1.30;;;28.50;1.00;;;;;;5180687;22;20228;-85
2022/08/23 13:41:52;;;;;;;3.17;1.00;;;29.00;99.90;;;;;;5096260;28;20188;-87
2022/08/23 13:44:47;;;;;;;5.07;1.08;;;28.80;1.00;;;;;;5096653;28;20206;-85
2022/08/23 13:47:37;;;;;;;3.78;1.33;;;28.60;1.00;;;;;;5098062;28;20183;-86
2022/08/23 13:50:49;;;;;;;2.08;1.13;;;28.60;1.00;;;;;;5097074;28;20172;-86
2022/08/23 13:53:31;;;;;;;3.88;1.10;;;28.20;99.90;;;;;;5097181;28;20177;-86
2022/08/23 13:56:28;;;;;;;2.20;1.30;;;28.10;1.00;;;;;;5097697;28;20184;-88
2022/08/23 14:02:47;;;;;;;2.55;1.60;;;28.40;1.00;;;;;;5097999;28;20198;-90
2022/08/23 14:09:14;;;;;;;1.75;1.00;;;28.60;1.00;;;;;;5098161;28;20180;-88
2022/08/23 14:11:57;;;;;;;3.25;1.23;;;28.40;1.00;;;;;;5098789;28;20168;-87
2022/08/23 14:15:12;;;;;;;1.90;1.00;;;28.60;1.00;;;;;;5083771;28;20315;-88
2022/08/23 14:21:57;;;;;;;1.50;1.05;;;28.80;1.00;;;;;;5097433;28;20254;-88
2022/08/23 14:24:58;;;;;;;2.90;1.00;;;29.10;99.90;;;;;;5097814;28;20160;-88
2022/08/23 14:28:12;;;;;;;2.80;1.27;;;29.30;99.90;;;;;;5089943;28;20203;-87
2022/08/23 14:44:35;;;;;;;3.35;1.20;;;30.10;99.90;;;;;;5216426;22;20222;-87
2022/08/23 14:47:25;;;;;;;1.90;0.93;;;29.80;76.00;;;;;;5112996;28;20199;-88
2022/08/23 14:50:20;;;;;;;1.48;1.05;;;29.70;78.90;;;;;;5117074;28;20378;-88
2022/08/23 14:56:36;;;;;;;2.92;1.08;;;29.30;99.90;;;;;;5117889;28;20147;-87
2022/08/23 14:59:25;;;;;;;2.95;1.10;;;29.40;45.70;;;;;;5116010;28;20179;-87
2022/08/23 15:02:37;;;;;;;1.35;1.10;;;29.30;1.00;;;;;;5111140;28;20214;-87
2022/08/23 15:08:50;;;;;;;1.70;1.17;;;29.80;1.00;;;;;;5116411;28;20245;-88
2022/08/23 15:11:57;;;;;;;1.10;1.00;;;29.80;1.00;;;;;;5117921;28;20198;-88
2022/08/23 15:14:34;;;;;;;2.85;1.20;;;29.90;99.90;;;;;;5119049;28;20171;-87
2022/08/23 15:17:40;;;;;;;3.05;1.33;;;29.70;99.90;;;;;;5118738;28;20219;-87
2022/08/23 15:23:38;;;;;;;1.60;1.05;;;29.90;26.10;;;;;;5117877;28;20214;-86
2022/08/23 15:26:42;;;;;;;3.08;1.30;;;30.00;6.00;;;;;;5115015;28;20163;-88
2022/08/23 15:32:33;;;;;;;1.75;1.27;;;30.20;1.00;;;;;;5116430;28;20220;-87
2022/08/23 15:35:53;;;;;;;1.45;1.00;;;30.50;1.00;;;;;;5115760;28;20172;-88
2022/08/23 15:41:56;;;;;;;2.00;1.13;;;31.00;1.00;;;;;;5119731;28;20170;-87
2022/08/23 15:45:15;;;;;;;2.67;1.20;;;31.10;1.00;;;;;;5113575;28;20226;-87
2022/08/23 15:51:45;;;;;;;2.45;1.30;;;30.80;1.00;;;;;;5116967;28;20166;-89
2022/08/23 15:54:13;;;;;;;3.47;1.48;;;30.50;1.00;;;;;;5115565;28;20171;-88
2022/08/23 15:56:44;;;;;;;2.22;1.35;;;30.40;99.90;;;;;;5118099;28;20180;-86
2022/08/23 15:59:20;;;;;;;1.80;1.38;;;30.50;73.00;;;;;;5118924;28;20148;-88
2022/08/23 16:02:05;;;;;;;2.50;1.48;;;30.60;99.90;;;;;;5118176;28;20226;-87
2022/08/23 16:08:26;;;;;;;2.72;1.40;;;30.20;99.90;;;;;;5116808;28;20281;-86
2022/08/23 16:11:24;;;;;;;2.85;1.60;;;30.10;10.10;;;;;;5112936;28;20187;-86
2022/08/23 16:13:53;;;;;;;2.72;1.30;;;29.90;99.90;;;;;;5115118;28;20155;-87
2022/08/23 16:16:39;;;;;;;1.42;1.10;;;30.00;99.90;;;;;;5114106;28;20850;-88
2022/08/23 16:19:44;;;;;;;2.45;1.40;;;30.10;99.90;;;;;;5112950;28;20167;-87
2022/08/23 16:22:15;;;;;;;2.25;1.55;;;29.90;1.00;;;;;;5114582;28;20247;-88
2022/08/23 16:28:14;;;;;;;2.75;1.42;;;30.10;99.90;;;;;;5116946;28;20203;-89
2022/08/23 16:37:40;;;;;;;4.82;1.25;;;29.60;1.00;;;;;;5116935;28;20191;-89
2022/08/23 16:40:16;;;;;;;2.30;1.30;;;29.40;99.90;;;;;;5117061;28;20170;-88
2022/08/23 16:42:51;;;;;;;1.58;1.27;;;29.30;99.90;;;;;;5116997;28;20212;-87
2022/08/23 16:45:37;;;;;;;2.17;1.58;;;29.40;99.90;;;;;;5115023;28;20203;-88
2022/08/23 16:48:53;;;;;;;1.50;1.23;;;29.40;1.00;;;;;;5116322;28;20175;-87
2022/08/23 16:51:36;;;;;;;2.25;1.30;;;29.40;1.00;;;;;;5111248;28;20175;-88
2022/08/23 16:54:11;;;;;;;4.15;1.60;;;29.40;1.00;;;;;;5113412;28;20171;-90
2022/08/23 16:56:41;;;;;;;2.22;1.30;;;29.40;99.90;;;;;;5112198;28;20170;-88
2022/08/23 17:02:34;;;;;;;3.10;1.60;;;29.50;99.90;;;;;;5116273;28;20217;-89
2022/08/23 17:05:29;;;;;;;2.33;1.48;;;29.50;1.00;;;;;;5115538;28;20156;-86
2022/08/23 17:08:40;;;;;;;3.25;1.30;;;29.30;1.00;;;;;;5116980;28;20160;-92
2022/08/23 17:14:31;;;;;;;1.63;1.30;;;29.50;1.00;;;;;;5116391;28;20205;-88
2022/08/23 17:17:07;;;;;;;2.13;1.42;;;29.60;1.00;;;;;;5106896;28;20163;-88
2022/08/23 17:19:57;;;;;;;3.40;1.60;;;29.90;99.90;;;;;;5114029;28;20158;-91
2022/08/23 17:22:53;;;;;;;;;;;;;;;;;;;;;
2022/08/23 17:26:09;;;;;;;3.13;1.80;;;29.80;65.50;;;;;;5112058;28;20207;-91
2022/08/23 17:29:16;;;;;;;4.50;2.90;;;29.60;99.90;;;;;;5112666;28;20184;-88
2022/08/23 17:32:14;;;;;;;2.10;1.60;;;29.70;99.90;;;;;;5110884;28;20178;-88
2022/08/23 17:35:42;;;;;;;;;;;;;;;;;;;;;
2022/08/23 17:38:24;;;;;;;1.95;1.45;;;29.60;99.90;;;;;;5111575;28;20636;-88
2022/08/23 17:41:00;;;;;;;1.77;1.40;;;29.40;99.90;;;;;;5109381;28;20215;-87
2022/08/23 17:43:31;;;;;;;1.75;1.40;;;29.20;1.00;;;;;;5108150;28;20720;-91
2022/08/23 17:46:19;;;;;;;2.03;1.40;;;29.10;99.90;;;;;;5119028;28;20199;-88
2022/08/23 17:48:56;;;;;;;1.88;1.40;;;29.10;99.90;;;;;;5115686;28;20180;-90
2022/08/23 17:51:53;;;;;;;3.17;1.50;;;29.10;99.90;;;;;;5111062;28;20239;-91
2022/08/23 17:54:39;;;;;;;3.45;2.13;;;29.10;99.90;;;;;;5117158;28;20167;-87